createdAt,value
2018-12-12T00:00:22.570Z,80.60
2018-12-12T00:02:48.787Z,79.86
2018-12-12T00:05:15.107Z,80.32
2018-12-12T00:07:41.267Z,79.87
2018-12-12T00:10:10.458Z,80.80
2018-12-12T00:12:37.200Z,80.83
2018-12-12T00:15:04.724Z,80.27
2018-12-12T00:17:31.018Z,81.06
2018-12-12T00:19:57.309Z,81.35
2018-12-12T00:22:23.560Z,80.93
2018-12-12T00:24:49.673Z,81.57
2018-12-12T00:27:15.907Z,81.50
2018-12-12T00:29:42.030Z,82.07
2018-12-12T00:32:08.326Z,81.45
2018-12-12T00:34:34.481Z,80.80
2018-12-12T00:37:00.715Z,80.60
2018-12-12T00:39:26.950Z,81.14
2018-12-12T00:41:54.063Z,80.66
2018-12-12T00:44:20.346Z,80.41
2018-12-12T00:46:46.706Z,79.57
2018-12-12T00:49:12.946Z,79.75
2018-12-12T00:51:39.287Z,79.62
2018-12-12T00:54:05.840Z,79.83
2018-12-12T00:56:32.031Z,80.39
2018-12-12T00:58:58.163Z,79.85
2018-12-12T01:01:24.458Z,79.90
2018-12-12T01:03:50.545Z,81.31
2018-12-12T01:06:16.757Z,82.20
2018-12-12T01:08:43.110Z,81.88
2018-12-12T01:11:15.771Z,81.32
2018-12-12T01:13:41.864Z,80.15
2018-12-12T01:16:08.059Z,79.74
2018-12-12T01:18:34.308Z,81.04
2018-12-12T01:21:00.430Z,80.54
2018-12-12T01:23:26.537Z,80.33
2018-12-12T01:25:52.796Z,80.00
2018-12-12T01:28:18.885Z,79.42
2018-12-12T01:30:45.301Z,79.34
2018-12-12T01:33:11.459Z,79.71
2018-12-12T01:35:37.673Z,80.53
2018-12-12T01:38:03.863Z,81.00
2018-12-12T01:40:30.265Z,80.38
2018-12-12T01:42:56.393Z,80.64
2018-12-12T01:45:22.634Z,80.67
2018-12-12T01:47:48.785Z,80.92
2018-12-12T01:50:15.020Z,80.90
2018-12-12T01:52:41.105Z,80.75
2018-12-12T01:55:07.349Z,80.01
2018-12-12T01:57:33.600Z,79.84
2018-12-12T01:59:59.854Z,80.28
2018-12-12T02:02:26.077Z,80.57
2018-12-12T02:04:52.328Z,81.09
2018-12-12T02:07:18.996Z,80.70
2018-12-12T02:09:45.222Z,80.52
2018-12-12T02:12:12.320Z,80.07
2018-12-12T02:14:38.487Z,79.85
2018-12-12T02:17:04.635Z,80.13
2018-12-12T02:19:30.930Z,80.89
2018-12-12T02:21:57.947Z,81.11
2018-12-12T02:24:24.076Z,80.55
2018-12-12T02:26:50.197Z,79.94
2018-12-12T02:29:16.445Z,80.90
2018-12-12T02:31:42.601Z,80.81
2018-12-12T02:34:08.730Z,80.42
2018-12-12T02:36:34.870Z,80.49
2018-12-12T02:39:01.083Z,80.42
2018-12-12T02:41:27.206Z,80.82
2018-12-12T02:43:53.543Z,81.26
2018-12-12T02:46:19.988Z,80.44
2018-12-12T02:48:46.253Z,80.26
2018-12-12T02:51:19.408Z,80.35
2018-12-12T02:53:46.161Z,80.86
2018-12-12T02:56:12.380Z,80.17
2018-12-12T02:58:38.793Z,80.05
2018-12-12T03:01:05.002Z,79.49
2018-12-12T03:03:31.319Z,79.31
2018-12-12T03:05:57.546Z,80.23
2018-12-12T03:08:23.671Z,80.09
2018-12-12T03:10:49.898Z,81.03
2018-12-12T03:13:16.136Z,80.65
2018-12-12T03:15:42.352Z,80.30
2018-12-12T03:18:08.511Z,80.83
2018-12-12T03:20:34.848Z,81.20
2018-12-12T03:23:00.934Z,81.29
2018-12-12T03:25:27.030Z,81.45
2018-12-12T03:27:53.193Z,81.46
2018-12-12T03:30:19.429Z,82.27
2018-12-12T03:32:45.542Z,81.41
2018-12-12T03:35:11.811Z,81.30
2018-12-12T03:37:37.969Z,80.54
2018-12-12T03:40:05.216Z,82.08
2018-12-12T03:42:32.003Z,81.36
2018-12-12T03:44:58.130Z,80.66
2018-12-12T03:47:24.598Z,80.41
2018-12-12T03:49:51.773Z,81.01
2018-12-12T03:52:17.909Z,79.94
2018-12-12T03:54:44.099Z,80.39
2018-12-12T03:57:10.250Z,81.12
2018-12-12T03:59:36.453Z,81.19
2018-12-12T04:02:02.919Z,81.40
2018-12-12T04:04:29.282Z,82.08
2018-12-12T04:06:55.416Z,83.01
2018-12-12T04:09:21.545Z,83.13
2018-12-12T04:11:47.760Z,82.60
2018-12-12T04:14:14.070Z,82.62
2018-12-12T04:16:41.295Z,81.64
2018-12-12T04:19:07.634Z,82.36
2018-12-12T04:21:34.031Z,82.72
2018-12-12T04:24:00.300Z,82.05
2018-12-12T04:26:26.606Z,83.05
2018-12-12T04:28:52.770Z,82.15
2018-12-12T04:31:18.993Z,81.59
2018-12-12T04:33:45.182Z,83.45
2018-12-12T04:36:11.482Z,83.11
2018-12-12T04:38:37.634Z,82.59
2018-12-12T04:41:03.884Z,81.86
2018-12-12T04:43:31.039Z,82.33
2018-12-12T04:45:57.424Z,82.57
2018-12-12T04:48:23.593Z,84.12
2018-12-12T04:50:50.839Z,84.59
2018-12-12T04:53:17.898Z,84.41
2018-12-12T04:55:45.069Z,84.59
2018-12-12T04:58:12.012Z,84.02
2018-12-12T05:00:38.396Z,83.40
2018-12-12T05:03:05.115Z,84.00
2018-12-12T05:05:32.621Z,84.63
2018-12-12T05:07:58.727Z,84.65
2018-12-12T05:10:24.963Z,84.05
2018-12-12T05:12:51.241Z,84.32
2018-12-12T05:15:18.465Z,84.59
2018-12-12T05:17:44.660Z,84.48
2018-12-12T05:20:10.837Z,84.02
2018-12-12T05:22:36.965Z,84.46
2018-12-12T05:25:03.786Z,84.67
2018-12-12T05:27:31.933Z,84.53
2018-12-12T05:29:59.998Z,84.63
2018-12-12T05:32:26.573Z,84.34
2018-12-12T05:34:52.733Z,83.96
2018-12-12T05:37:18.955Z,83.72
2018-12-12T05:39:52.454Z,83.69
2018-12-12T05:42:19.724Z,83.37
2018-12-12T05:44:46.017Z,83.71
2018-12-12T05:47:12.321Z,83.24
2018-12-12T05:49:39.478Z,82.86
2018-12-12T05:52:05.757Z,83.17
2018-12-12T05:54:31.869Z,83.41
2018-12-12T05:56:58.573Z,83.79
2018-12-12T05:59:27.573Z,82.87
2018-12-12T06:01:54.033Z,83.57
2018-12-12T06:04:20.429Z,83.15
2018-12-12T06:06:46.584Z,82.84
2018-12-12T06:09:13.181Z,82.88
2018-12-12T06:11:39.446Z,82.76
2018-12-12T06:14:05.657Z,82.96
2018-12-12T06:16:31.965Z,83.15
2018-12-12T06:18:58.164Z,84.03
2018-12-12T06:21:24.393Z,84.65
2018-12-12T06:23:50.623Z,84.56
2018-12-12T06:26:16.910Z,83.49
2018-12-12T06:28:43.985Z,83.00
2018-12-12T06:31:10.368Z,83.06
2018-12-12T06:33:36.628Z,82.68
2018-12-12T06:36:02.912Z,83.14
2018-12-12T06:38:29.910Z,83.17
2018-12-12T06:40:57.794Z,83.13
2018-12-12T06:43:24.079Z,83.91
2018-12-12T06:45:50.293Z,83.22
2018-12-12T06:48:16.458Z,83.14
2018-12-12T06:50:42.606Z,83.19
2018-12-12T06:53:08.907Z,81.55
2018-12-12T06:55:35.171Z,82.38
2018-12-12T06:58:01.565Z,82.58
2018-12-12T07:00:27.938Z,81.79
2018-12-12T07:02:54.231Z,81.96
2018-12-12T07:05:20.437Z,81.97
2018-12-12T07:07:46.716Z,81.59
2018-12-12T07:10:13.121Z,81.23
2018-12-12T07:12:40.170Z,80.67
2018-12-12T07:15:06.497Z,80.20
2018-12-12T07:17:32.893Z,80.63
2018-12-12T07:19:59.301Z,80.72
2018-12-12T07:22:25.547Z,81.03
2018-12-12T07:24:51.815Z,80.87
2018-12-12T07:27:18.023Z,80.86
2018-12-12T07:29:44.691Z,80.65
2018-12-12T07:32:11.225Z,80.53
2018-12-12T07:34:37.386Z,79.96
2018-12-12T07:37:04.494Z,80.54
2018-12-12T07:39:30.641Z,79.60
2018-12-12T07:42:00.857Z,79.36
2018-12-12T07:44:27.088Z,79.17
2018-12-12T07:46:53.817Z,80.11
2018-12-12T07:49:20.872Z,79.97
2018-12-12T07:51:47.123Z,79.60
2018-12-12T07:54:13.225Z,79.02
2018-12-12T07:56:39.426Z,78.84
2018-12-12T07:59:05.708Z,78.85
2018-12-12T08:01:31.865Z,79.55
2018-12-12T08:03:58.094Z,78.57
2018-12-12T08:06:24.382Z,77.90
2018-12-12T08:08:50.701Z,78.67
2018-12-12T08:11:16.882Z,78.34
2018-12-12T08:13:43.129Z,78.54
2018-12-12T08:16:09.338Z,78.69
2018-12-12T08:18:35.613Z,78.07
2018-12-12T08:21:02.048Z,78.55
2018-12-12T08:23:28.973Z,78.35
2018-12-12T08:25:55.378Z,78.46
2018-12-12T08:28:22.451Z,77.96
2018-12-12T08:30:48.809Z,77.73
2018-12-12T08:33:15.111Z,78.66
2018-12-12T08:35:41.358Z,78.61
2018-12-12T08:38:07.454Z,78.25
2018-12-12T08:40:33.609Z,78.40
2018-12-12T08:42:59.899Z,78.21
2018-12-12T08:45:26.025Z,76.96
2018-12-12T08:47:52.977Z,77.97
2018-12-12T08:50:19.198Z,78.85
2018-12-12T08:52:45.536Z,78.56
2018-12-12T08:55:17.440Z,78.94
2018-12-12T08:57:40.001Z,78.69
2018-12-12T09:00:06.805Z,78.07
2018-12-12T09:02:33.151Z,78.27
2018-12-12T09:04:59.307Z,78.08
2018-12-12T09:07:25.435Z,79.01
2018-12-12T09:09:51.700Z,78.72
2018-12-12T09:12:17.920Z,77.51
2018-12-12T09:14:44.064Z,78.37
2018-12-12T09:17:10.285Z,77.91
2018-12-12T09:19:36.477Z,77.02
2018-12-12T09:22:02.799Z,77.64
2018-12-12T09:24:28.893Z,76.81
2018-12-12T09:26:54.987Z,76.66
2018-12-12T09:29:21.131Z,77.62
2018-12-12T09:31:48.231Z,76.45
2018-12-12T09:34:14.441Z,75.50
2018-12-12T09:36:40.549Z,75.69
2018-12-12T09:39:07.718Z,75.61
2018-12-12T09:41:34.096Z,75.58
2018-12-12T09:44:00.336Z,75.64
2018-12-12T09:46:26.485Z,75.72
2018-12-12T09:48:52.676Z,76.41
2018-12-12T09:51:18.943Z,74.91
2018-12-12T09:53:45.120Z,74.01
2018-12-12T09:56:11.333Z,73.00
2018-12-12T09:58:37.559Z,74.65
2018-12-12T10:01:03.958Z,74.15
2018-12-12T10:03:31.292Z,74.48
2018-12-12T10:05:57.789Z,73.62
2018-12-12T10:08:24.263Z,73.75
2018-12-12T10:10:50.475Z,74.04
2018-12-12T10:13:16.863Z,73.80
2018-12-12T10:15:43.032Z,74.27
2018-12-12T10:18:09.374Z,73.60
2018-12-12T10:20:35.666Z,73.29
2018-12-12T10:23:01.761Z,73.93
2018-12-12T10:25:27.979Z,73.25
2018-12-12T10:27:54.110Z,72.05
2018-12-12T10:30:20.304Z,71.57
2018-12-12T10:32:46.538Z,71.66
2018-12-12T10:35:12.772Z,70.98
2018-12-12T10:37:38.900Z,70.26
2018-12-12T10:40:05.383Z,71.14
2018-12-12T10:42:31.550Z,70.15
2018-12-12T10:44:57.832Z,70.23
2018-12-12T10:47:23.975Z,70.49
2018-12-12T10:49:50.235Z,70.53
2018-12-12T10:52:16.649Z,70.10
2018-12-12T10:54:43.308Z,68.89
2018-12-12T10:57:09.654Z,68.49
2018-12-12T10:59:35.782Z,69.01
2018-12-12T11:05:11.460Z,68.57
2018-12-12T11:07:37.698Z,67.51
2018-12-12T11:10:04.399Z,66.49
2018-12-12T11:12:31.406Z,66.28
2018-12-12T11:14:57.699Z,66.17
2018-12-12T11:17:24.006Z,67.00
2018-12-12T11:19:50.891Z,66.06
2018-12-12T11:22:17.079Z,66.55
2018-12-12T11:24:43.383Z,66.34
2018-12-12T11:27:09.601Z,65.25
2018-12-12T11:29:43.751Z,64.80
2018-12-12T11:32:10.093Z,63.89
2018-12-12T11:34:36.394Z,63.99
2018-12-12T11:37:03.664Z,63.82
2018-12-12T11:39:29.766Z,64.94
2018-12-12T11:41:55.876Z,64.12
2018-12-12T11:44:21.962Z,62.36
2018-12-12T11:46:48.177Z,62.63
2018-12-12T11:49:14.429Z,63.82
2018-12-12T11:51:42.173Z,64.19
2018-12-12T11:54:08.400Z,63.74
2018-12-12T11:56:34.661Z,63.67
2018-12-12T11:59:00.917Z,63.11
2018-12-12T12:01:27.148Z,63.25
2018-12-12T12:03:56.766Z,62.69
2018-12-12T12:06:22.599Z,62.57
2018-12-12T12:08:49.584Z,62.80
2018-12-12T12:11:15.807Z,61.39
2018-12-12T12:13:41.938Z,61.10
2018-12-12T12:16:08.185Z,60.00
2018-12-12T12:18:34.516Z,57.41
2018-12-12T12:21:00.825Z,56.70
2018-12-12T12:23:27.056Z,55.72
2018-12-12T12:25:53.253Z,52.38
2018-12-12T12:28:19.464Z,50.38
2018-12-12T12:30:45.537Z,47.50
2018-12-12T12:33:11.697Z,48.95
2018-12-12T12:35:37.804Z,50.35
2018-12-12T12:38:04.045Z,52.80
2018-12-12T12:40:30.195Z,53.60
2018-12-12T12:42:56.429Z,54.94
2018-12-12T12:45:23.027Z,56.77
2018-12-12T12:47:49.211Z,57.88
2018-12-12T12:50:15.400Z,57.27
2018-12-12T12:52:42.315Z,58.49
2018-12-12T12:55:09.597Z,58.36
2018-12-12T12:57:35.699Z,59.38
2018-12-12T13:00:03.114Z,60.53
2018-12-12T13:02:29.301Z,61.27
2018-12-12T13:04:55.454Z,61.67
2018-12-12T13:07:21.782Z,61.30
2018-12-12T13:09:48.934Z,61.36
2018-12-12T13:12:15.156Z,61.38
2018-12-12T13:14:41.406Z,61.24
2018-12-12T13:17:07.578Z,62.08
2018-12-12T13:19:34.477Z,62.61
2018-12-12T13:22:00.722Z,62.47
2018-12-12T13:24:26.930Z,61.91
2018-12-12T13:26:53.965Z,61.83
2018-12-12T13:29:20.503Z,61.49
2018-12-12T13:31:46.799Z,61.31
2018-12-12T13:34:16.260Z,61.30
2018-12-12T13:36:41.145Z,61.70
2018-12-12T13:39:08.161Z,61.91
2018-12-12T13:41:34.623Z,62.00
2018-12-12T13:44:01.067Z,62.67
2018-12-12T13:46:27.286Z,62.33
2018-12-12T13:49:00.639Z,62.29
2018-12-12T13:51:27.741Z,63.71
2018-12-12T13:53:53.928Z,63.64
2018-12-12T13:56:20.174Z,64.16
2018-12-12T13:58:47.278Z,63.47
2018-12-12T14:01:14.626Z,64.80
2018-12-12T14:03:40.911Z,64.99
2018-12-12T14:06:07.144Z,64.82
2018-12-12T14:08:33.431Z,64.58
2018-12-12T14:10:59.755Z,63.66
2018-12-12T14:13:25.923Z,63.67
2018-12-12T14:15:52.078Z,64.21
2018-12-12T14:18:18.225Z,64.51
2018-12-12T14:20:45.279Z,64.78
2018-12-12T14:23:11.470Z,64.98
2018-12-12T14:25:37.623Z,65.19
2018-12-12T14:28:03.817Z,64.94
2018-12-12T14:30:30.174Z,65.99
2018-12-12T14:32:56.402Z,65.91
2018-12-12T14:35:22.867Z,66.40
2018-12-12T14:37:49.000Z,66.84
2018-12-12T14:40:15.241Z,66.32
2018-12-12T14:42:41.398Z,66.12
2018-12-12T14:45:08.435Z,65.40
2018-12-12T14:47:34.533Z,66.51
2018-12-12T14:50:00.731Z,66.20
2018-12-12T14:52:29.487Z,66.69
2018-12-12T14:54:55.659Z,67.02
2018-12-12T14:57:22.069Z,66.90
2018-12-12T14:59:49.293Z,66.59
2018-12-12T15:02:15.552Z,66.00
2018-12-12T15:04:42.972Z,65.66
2018-12-12T15:07:11.057Z,65.96
2018-12-12T15:09:38.472Z,65.47
2018-12-12T15:12:05.132Z,65.82
2018-12-12T15:14:32.974Z,65.61
2018-12-12T15:16:59.415Z,65.71
2018-12-12T15:19:29.568Z,65.90
2018-12-12T15:21:57.213Z,65.76
2018-12-12T15:24:25.314Z,66.61
2018-12-12T15:26:51.690Z,66.41
2018-12-12T15:29:18.109Z,65.96
2018-12-12T15:34:48.671Z,67.37
2018-12-12T15:37:18.538Z,67.28
2018-12-12T15:42:45.993Z,67.26
2018-12-12T15:45:27.022Z,67.33
2018-12-12T15:47:56.936Z,67.41
2018-12-12T15:50:50.654Z,67.16
2018-12-12T15:59:40.538Z,67.83
2018-12-12T16:11:26.425Z,68.55
2018-12-12T16:14:20.712Z,68.76
2018-12-12T16:23:14.771Z,69.35
2018-12-12T16:25:58.966Z,69.07
2018-12-12T16:31:33.643Z,68.26
2018-12-12T16:37:06.795Z,68.79
2018-12-12T16:48:49.696Z,68.64
2018-12-12T16:54:27.539Z,68.25
2018-12-12T16:56:58.706Z,68.64
2018-12-12T16:59:52.875Z,68.38
2018-12-12T17:05:07.905Z,67.99
2018-12-12T17:07:34.036Z,67.47
2018-12-12T17:10:01.210Z,67.33
2018-12-12T17:12:27.429Z,67.60
2018-12-12T17:14:53.534Z,67.84
2018-12-12T17:17:20.483Z,68.51
2018-12-12T17:19:47.665Z,68.85
2018-12-12T17:22:13.832Z,69.25
2018-12-12T17:24:40.091Z,70.19
2018-12-12T17:27:07.458Z,70.90
2018-12-12T17:29:33.588Z,71.48
2018-12-12T17:31:59.808Z,71.74
2018-12-12T17:34:26.919Z,71.13
2018-12-12T17:36:53.134Z,71.45
2018-12-12T17:39:21.278Z,72.16
2018-12-12T17:41:49.086Z,72.60
2018-12-12T17:44:15.242Z,73.10
2018-12-12T17:46:42.631Z,73.61
2018-12-12T17:49:09.645Z,73.90
2018-12-12T17:51:35.868Z,74.98
2018-12-12T17:54:03.228Z,74.76
2018-12-12T17:56:29.349Z,74.80
2018-12-12T17:58:56.297Z,74.18
2018-12-12T18:01:22.650Z,74.05
2018-12-12T18:03:48.954Z,73.48
2018-12-12T18:06:15.180Z,73.57
2018-12-12T18:08:41.313Z,73.59
2018-12-12T18:11:08.419Z,74.03
2018-12-12T18:13:34.510Z,73.76
2018-12-12T18:16:00.616Z,73.25
2018-12-12T18:18:27.024Z,74.21
2018-12-12T18:20:54.258Z,74.35
2018-12-12T18:23:21.181Z,75.60
2018-12-12T18:25:49.368Z,74.98
2018-12-12T18:28:16.516Z,75.51
2018-12-12T18:30:42.612Z,74.68
2018-12-12T18:33:08.766Z,75.37
2018-12-12T18:35:35.189Z,75.01
2018-12-12T18:38:02.246Z,74.52
2018-12-12T18:40:28.394Z,74.40
2018-12-12T18:42:54.531Z,74.73
2018-12-12T18:45:20.728Z,75.30
2018-12-12T18:47:47.862Z,74.75
2018-12-12T18:50:14.136Z,74.30
2018-12-12T18:52:40.444Z,74.71
2018-12-12T18:55:06.875Z,74.27
2018-12-12T18:57:33.040Z,74.20
2018-12-12T18:59:59.531Z,74.29
2018-12-12T19:02:25.741Z,74.13
2018-12-12T19:04:51.981Z,74.20
2018-12-12T19:07:18.344Z,74.04
2018-12-12T19:09:44.624Z,73.86
2018-12-12T19:12:11.816Z,74.34
2018-12-12T19:14:41.022Z,74.06
2018-12-12T19:17:07.169Z,74.12
2018-12-12T19:19:33.293Z,73.29
2018-12-12T19:21:59.584Z,72.73
2018-12-12T19:24:25.733Z,72.65
2018-12-12T19:26:52.001Z,71.57
2018-12-12T19:29:18.143Z,72.07
2018-12-12T19:31:44.494Z,71.20
2018-12-12T19:34:10.669Z,70.50
2018-12-12T19:36:36.817Z,70.87
2018-12-12T19:39:06.058Z,70.94
2018-12-12T19:41:32.534Z,70.25
2018-12-12T19:43:58.967Z,69.95
2018-12-12T19:46:25.335Z,69.75
2018-12-12T19:48:51.480Z,69.89
2018-12-12T19:51:17.861Z,69.32
2018-12-12T19:53:44.075Z,69.86
2018-12-12T19:56:10.410Z,70.57
2018-12-12T19:58:36.681Z,70.83
2018-12-12T20:01:03.054Z,70.15
2018-12-12T20:03:29.435Z,70.04
2018-12-12T20:05:55.669Z,70.15
2018-12-12T20:08:21.998Z,69.64
2018-12-12T20:10:48.275Z,69.54
2018-12-12T20:13:14.586Z,69.73
2018-12-12T20:15:43.786Z,70.81
2018-12-12T20:18:10.165Z,70.54
2018-12-12T20:20:36.509Z,70.06
2018-12-12T20:23:02.824Z,70.44
2018-12-12T20:25:28.957Z,71.01
2018-12-12T20:27:55.128Z,70.09
2018-12-12T20:30:21.451Z,70.60
2018-12-12T20:32:47.746Z,70.28
2018-12-12T20:35:14.191Z,69.80
2018-12-12T20:37:40.361Z,69.31
2018-12-12T20:40:06.802Z,69.34
2018-12-12T20:42:33.188Z,68.83
2018-12-12T20:44:59.460Z,68.75
2018-12-12T20:47:25.662Z,69.31
2018-12-12T20:49:51.789Z,69.49
2018-12-12T20:52:17.940Z,68.91
2018-12-12T20:54:44.119Z,69.67
2018-12-12T21:00:06.619Z,69.37
2018-12-12T21:02:33.021Z,69.08
2018-12-12T21:04:59.245Z,68.98
2018-12-12T21:07:25.391Z,68.87
2018-12-12T21:09:51.512Z,68.48
2018-12-12T21:12:17.917Z,68.13
2018-12-12T21:14:44.820Z,68.82
2018-12-12T21:17:10.967Z,68.54
2018-12-12T21:19:38.252Z,68.18
2018-12-12T21:22:11.882Z,67.99
2018-12-12T21:24:38.149Z,67.44
2018-12-12T21:27:04.281Z,67.94
2018-12-12T21:29:30.843Z,66.81
2018-12-12T21:31:56.982Z,66.87
2018-12-12T21:34:23.126Z,66.57
2018-12-12T21:36:49.331Z,66.46
2018-12-12T21:39:22.677Z,65.64
2018-12-12T21:41:48.841Z,66.43
2018-12-12T21:44:15.134Z,66.29
2018-12-12T21:46:41.254Z,66.00
2018-12-12T21:49:07.512Z,65.93
2018-12-12T21:51:33.612Z,66.56
2018-12-12T21:53:59.731Z,66.71
2018-12-12T21:56:25.929Z,66.29
2018-12-12T21:58:52.267Z,66.33
2018-12-12T22:01:19.113Z,64.93
2018-12-12T22:03:45.305Z,65.72
2018-12-12T22:06:11.555Z,65.52
2018-12-12T22:08:37.717Z,66.00
2018-12-12T22:11:04.058Z,66.60
2018-12-12T22:13:30.382Z,65.91
2018-12-12T22:15:57.469Z,65.62
2018-12-12T22:18:23.658Z,65.84
2018-12-12T22:20:49.785Z,65.48
2018-12-12T22:23:16.989Z,65.09
2018-12-12T22:25:43.123Z,65.03
2018-12-12T22:28:09.297Z,65.99
2018-12-12T22:30:35.518Z,65.83
2018-12-12T22:33:01.640Z,65.62
2018-12-12T22:35:28.284Z,65.86
2018-12-12T22:37:54.641Z,65.71
2018-12-12T22:40:20.925Z,65.65
2018-12-12T22:42:47.069Z,65.30
2018-12-12T22:45:13.227Z,65.65
2018-12-12T22:47:39.347Z,65.35
2018-12-12T22:50:05.773Z,66.21
2018-12-12T22:52:31.902Z,66.13
2018-12-12T22:54:58.045Z,66.01
2018-12-12T22:57:24.170Z,65.67
2018-12-12T22:59:50.447Z,66.45
2018-12-12T23:02:16.610Z,66.57
2018-12-12T23:04:42.815Z,66.50
2018-12-12T23:07:08.940Z,66.49
2018-12-12T23:09:35.116Z,66.25
2018-12-12T23:12:01.635Z,66.25
2018-12-12T23:14:27.880Z,66.50
2018-12-12T23:16:54.041Z,66.94
2018-12-12T23:19:20.185Z,67.32
2018-12-12T23:21:46.418Z,67.65
2018-12-12T23:24:12.729Z,67.53
2018-12-12T23:26:38.871Z,66.58
2018-12-12T23:29:05.052Z,66.09
2018-12-12T23:31:31.261Z,66.19
2018-12-12T23:33:57.520Z,65.48
2018-12-12T23:36:26.885Z,65.21
2018-12-12T23:38:52.026Z,64.76
2018-12-12T23:41:18.242Z,64.92
2018-12-12T23:43:44.397Z,64.79
2018-12-12T23:46:10.638Z,65.19
2018-12-12T23:48:36.759Z,65.34
2018-12-12T23:51:02.905Z,65.74
2018-12-12T23:53:28.996Z,67.18
2018-12-12T23:55:55.199Z,66.96
2018-12-12T23:58:21.389Z,67.16
